sensor_id;sensor_type;location;lat;lon;timestamp;pressure;altitude;pressure_sealevel;temperature
33267;BMP180;19638;49.080;11.896;2022-09-13T00:03:55;96095.00;;;12.00
33267;BMP180;19638;49.080;11.896;2022-09-13T00:07:59;96093.00;;;11.90
33267;BMP180;19638;49.080;11.896;2022-09-13T00:12:33;96083.00;;;11.80
33267;BMP180;19638;49.080;11.896;2022-09-13T00:16:36;96086.00;;;11.80
33267;BMP180;19638;49.080;11.896;2022-09-13T00:20:39;96078.00;;;11.80
33267;BMP180;19638;49.080;11.896;2022-09-13T00:24:44;96086.00;;;11.70
33267;BMP180;19638;49.080;11.896;2022-09-13T00:28:48;96086.00;;;11.70
33267;BMP180;19638;49.080;11.896;2022-09-13T00:33:23;96073.00;;;11.70
33267;BMP180;19638;49.080;11.896;2022-09-13T00:37:26;96071.00;;;11.70
33267;BMP180;19638;49.080;11.896;2022-09-13T00:41:31;96063.00;;;11.80
33267;BMP180;19638;49.080;11.896;2022-09-13T00:45:34;96062.00;;;11.70
33267;BMP180;19638;49.080;11.896;2022-09-13T00:49:38;96055.00;;;11.60
33267;BMP180;19638;49.080;11.896;2022-09-13T00:53:45;96061.00;;;11.70
33267;BMP180;19638;49.080;11.896;2022-09-13T01:02:25;96059.00;;;11.70
33267;BMP180;19638;49.080;11.896;2022-09-13T01:06:30;96045.00;;;11.70
33267;BMP180;19638;49.080;11.896;2022-09-13T01:10:35;96043.00;;;11.70
33267;BMP180;19638;49.080;11.896;2022-09-13T01:14:41;96057.00;;;11.60
33267;BMP180;19638;49.080;11.896;2022-09-13T01:19:23;96051.00;;;11.50
33267;BMP180;19638;49.080;11.896;2022-09-13T01:24:00;96046.00;;;11.40
33267;BMP180;19638;49.080;11.896;2022-09-13T01:28:34;96045.00;;;11.40
33267;BMP180;19638;49.080;11.896;2022-09-13T01:33:15;96050.00;;;11.20
33267;BMP180;19638;49.080;11.896;2022-09-13T01:37:43;96049.00;;;11.20
33267;BMP180;19638;49.080;11.896;2022-09-13T01:41:58;96036.00;;;11.20
33267;BMP180;19638;49.080;11.896;2022-09-13T01:46:04;96027.00;;;11.20
33267;BMP180;19638;49.080;11.896;2022-09-13T01:50:13;96026.00;;;11.20
33267;BMP180;19638;49.080;11.896;2022-09-13T01:54:20;96024.00;;;11.10
33267;BMP180;19638;49.080;11.896;2022-09-13T01:58:54;96021.00;;;11.00
33267;BMP180;19638;49.080;11.896;2022-09-13T02:03:03;96026.00;;;11.00
33267;BMP180;19638;49.080;11.896;2022-09-13T02:07:11;96035.00;;;11.10
33267;BMP180;19638;49.080;11.896;2022-09-13T02:11:16;96037.00;;;11.10
33267;BMP180;19638;49.080;11.896;2022-09-13T02:20:43;96039.00;;;11.20
33267;BMP180;19638;49.080;11.896;2022-09-13T02:24:53;96034.00;;;11.20
33267;BMP180;19638;49.080;11.896;2022-09-13T02:28:59;96043.00;;;11.10
33267;BMP180;19638;49.080;11.896;2022-09-13T02:33:07;96041.00;;;11.10
33267;BMP180;19638;49.080;11.896;2022-09-13T02:37:12;96042.00;;;11.10
33267;BMP180;19638;49.080;11.896;2022-09-13T02:41:22;96038.00;;;11.10
33267;BMP180;19638;49.080;11.896;2022-09-13T02:45:30;96039.00;;;11.10
33267;BMP180;19638;49.080;11.896;2022-09-13T02:49:43;96050.00;;;11.10
33267;BMP180;19638;49.080;11.896;2022-09-13T02:54:18;96043.00;;;11.00
33267;BMP180;19638;49.080;11.896;2022-09-13T02:58:31;96052.00;;;11.00
33267;BMP180;19638;49.080;11.896;2022-09-13T03:02:37;96038.00;;;11.00
33267;BMP180;19638;49.080;11.896;2022-09-13T03:07:12;96033.00;;;11.20
33267;BMP180;19638;49.080;11.896;2022-09-13T03:11:24;96014.00;;;11.20
33267;BMP180;19638;49.080;11.896;2022-09-13T03:15:44;96007.00;;;11.30
33267;BMP180;19638;49.080;11.896;2022-09-13T03:20:00;95997.00;;;11.20
33267;BMP180;19638;49.080;11.896;2022-09-13T03:24:31;95982.00;;;11.40
33267;BMP180;19638;49.080;11.896;2022-09-13T03:28:47;95982.00;;;11.50
33267;BMP180;19638;49.080;11.896;2022-09-13T03:33:03;95976.00;;;11.70
33267;BMP180;19638;49.080;11.896;2022-09-13T03:37:31;95987.00;;;11.90
33267;BMP180;19638;49.080;11.896;2022-09-13T03:41:38;95972.00;;;12.10
33267;BMP180;19638;49.080;11.896;2022-09-13T03:45:46;95984.00;;;12.30
33267;BMP180;19638;49.080;11.896;2022-09-13T03:49:54;95991.00;;;12.30
33267;BMP180;19638;49.080;11.896;2022-09-13T03:54:01;95998.00;;;12.30
33267;BMP180;19638;49.080;11.896;2022-09-13T04:02:35;96001.00;;;12.50
33267;BMP180;19638;49.080;11.896;2022-09-13T04:06:40;95991.00;;;12.40
33267;BMP180;19638;49.080;11.896;2022-09-13T04:10:43;95994.00;;;12.30
33267;BMP180;19638;49.080;11.896;2022-09-13T04:14:46;95984.00;;;12.20
33267;BMP180;19638;49.080;11.896;2022-09-13T04:18:49;95978.00;;;12.10
33267;BMP180;19638;49.080;11.896;2022-09-13T04:22:55;95995.00;;;12.10
33267;BMP180;19638;49.080;11.896;2022-09-13T04:27:29;95989.00;;;12.10
33267;BMP180;19638;49.080;11.896;2022-09-13T04:31:32;96007.00;;;12.20
33267;BMP180;19638;49.080;11.896;2022-09-13T04:35:35;96004.00;;;12.30
33267;BMP180;19638;49.080;11.896;2022-09-13T04:44:16;96003.00;;;12.50
33267;BMP180;19638;49.080;11.896;2022-09-13T04:48:19;95999.00;;;12.50
33267;BMP180;19638;49.080;11.896;2022-09-13T04:52:22;96004.00;;;12.50
33267;BMP180;19638;49.080;11.896;2022-09-13T04:56:26;96010.00;;;12.60
33267;BMP180;19638;49.080;11.896;2022-09-13T05:00:31;96023.00;;;12.60
33267;BMP180;19638;49.080;11.896;2022-09-13T05:04:34;96011.00;;;12.60
33267;BMP180;19638;49.080;11.896;2022-09-13T05:08:38;96002.00;;;12.70
33267;BMP180;19638;49.080;11.896;2022-09-13T05:13:11;96008.00;;;12.70
33267;BMP180;19638;49.080;11.896;2022-09-13T05:17:16;95998.00;;;12.80
33267;BMP180;19638;49.080;11.896;2022-09-13T05:21:19;96006.00;;;12.90
33267;BMP180;19638;49.080;11.896;2022-09-13T05:25:54;96003.00;;;12.90
33267;BMP180;19638;49.080;11.896;2022-09-13T05:29:57;96010.00;;;12.90
33267;BMP180;19638;49.080;11.896;2022-09-13T05:34:03;96016.00;;;12.90
33267;BMP180;19638;49.080;11.896;2022-09-13T05:38:07;96017.00;;;12.90
33267;BMP180;19638;49.080;11.896;2022-09-13T05:42:44;96018.00;;;13.00
33267;BMP180;19638;49.080;11.896;2022-09-13T05:46:47;96016.00;;;12.90
33267;BMP180;19638;49.080;11.896;2022-09-13T05:50:52;96021.00;;;13.00
33267;BMP180;19638;49.080;11.896;2022-09-13T05:54:59;96015.00;;;13.10
33267;BMP180;19638;49.080;11.896;2022-09-13T05:59:02;96017.00;;;13.20
33267;BMP180;19638;49.080;11.896;2022-09-13T06:03:05;96021.00;;;13.30
33267;BMP180;19638;49.080;11.896;2022-09-13T06:07:11;96017.00;;;13.40
33267;BMP180;19638;49.080;11.896;2022-09-13T06:11:45;96013.00;;;13.50
33267;BMP180;19638;49.080;11.896;2022-09-13T06:15:48;96002.00;;;13.80
33267;BMP180;19638;49.080;11.896;2022-09-13T06:19:51;96005.00;;;14.10
33267;BMP180;19638;49.080;11.896;2022-09-13T06:23:56;95982.00;;;14.40
33267;BMP180;19638;49.080;11.896;2022-09-13T06:27:59;95984.00;;;14.60
33267;BMP180;19638;49.080;11.896;2022-09-13T06:32:02;95990.00;;;14.90
33267;BMP180;19638;49.080;11.896;2022-09-13T06:36:07;95995.00;;;15.10
33267;BMP180;19638;49.080;11.896;2022-09-13T06:44:48;96013.00;;;15.50
33267;BMP180;19638;49.080;11.896;2022-09-13T06:48:52;96020.00;;;15.80
33267;BMP180;19638;49.080;11.896;2022-09-13T06:52:56;96016.00;;;16.10
33267;BMP180;19638;49.080;11.896;2022-09-13T06:57:32;96013.00;;;16.30
33267;BMP180;19638;49.080;11.896;2022-09-13T07:01:38;96016.00;;;16.50
33267;BMP180;19638;49.080;11.896;2022-09-13T07:05:41;96004.00;;;16.60
33267;BMP180;19638;49.080;11.896;2022-09-13T07:09:45;96012.00;;;16.80
33267;BMP180;19638;49.080;11.896;2022-09-13T07:18:26;96022.00;;;17.30
33267;BMP180;19638;49.080;11.896;2022-09-13T07:22:29;96016.00;;;17.60
33267;BMP180;19638;49.080;11.896;2022-09-13T07:31:10;96028.00;;;17.80
33267;BMP180;19638;49.080;11.896;2022-09-13T07:35:15;96015.00;;;18.00
33267;BMP180;19638;49.080;11.896;2022-09-13T07:39:49;96006.00;;;18.20
33267;BMP180;19638;49.080;11.896;2022-09-13T07:43:52;96011.00;;;18.40
33267;BMP180;19638;49.080;11.896;2022-09-13T07:48:27;96024.00;;;18.60
33267;BMP180;19638;49.080;11.896;2022-09-13T07:52:35;96018.00;;;18.70
33267;BMP180;19638;49.080;11.896;2022-09-13T07:56:39;96032.00;;;18.90
33267;BMP180;19638;49.080;11.896;2022-09-13T08:05:16;96041.00;;;19.40
33267;BMP180;19638;49.080;11.896;2022-09-13T08:09:20;96046.00;;;19.60
33267;BMP180;19638;49.080;11.896;2022-09-13T08:13:24;96043.00;;;19.60
33267;BMP180;19638;49.080;11.896;2022-09-13T08:17:27;96042.00;;;19.70
33267;BMP180;19638;49.080;11.896;2022-09-13T08:21:32;96038.00;;;19.70
33267;BMP180;19638;49.080;11.896;2022-09-13T08:25:37;96033.00;;;19.70
33267;BMP180;19638;49.080;11.896;2022-09-13T08:30:12;96026.00;;;19.80
33267;BMP180;19638;49.080;11.896;2022-09-13T08:34:15;96028.00;;;20.10
33267;BMP180;19638;49.080;11.896;2022-09-13T08:38:18;96028.00;;;20.50
33267;BMP180;19638;49.080;11.896;2022-09-13T08:42:59;96030.00;;;21.00
33267;BMP180;19638;49.080;11.896;2022-09-13T08:47:23;96027.00;;;21.90
33267;BMP180;19638;49.080;11.896;2022-09-13T08:51:31;96018.00;;;22.70
33267;BMP180;19638;49.080;11.896;2022-09-13T08:55:45;96014.00;;;23.40
33267;BMP180;19638;49.080;11.896;2022-09-13T08:59:54;96005.00;;;23.70
33267;BMP180;19638;49.080;11.896;2022-09-13T09:04:06;96010.00;;;23.90
33267;BMP180;19638;49.080;11.896;2022-09-13T09:08:26;96017.00;;;24.00
33267;BMP180;19638;49.080;11.896;2022-09-13T09:12:51;96000.00;;;24.20
33267;BMP180;19638;49.080;11.896;2022-09-13T09:16:59;96005.00;;;24.40
33267;BMP180;19638;49.080;11.896;2022-09-13T09:21:10;96007.00;;;24.70
33267;BMP180;19638;49.080;11.896;2022-09-13T09:25:38;96016.00;;;25.10
33267;BMP180;19638;49.080;11.896;2022-09-13T09:29:42;96026.00;;;25.40
33267;BMP180;19638;49.080;11.896;2022-09-13T09:34:02;96030.00;;;25.70
33267;BMP180;19638;49.080;11.896;2022-09-13T09:38:31;96028.00;;;26.10
33267;BMP180;19638;49.080;11.896;2022-09-13T09:42:40;96021.00;;;26.60
33267;BMP180;19638;49.080;11.896;2022-09-13T09:46:47;96006.00;;;26.80
33267;BMP180;19638;49.080;11.896;2022-09-13T09:50:53;96009.00;;;26.90
33267;BMP180;19638;49.080;11.896;2022-09-13T09:55:27;95999.00;;;26.90
33267;BMP180;19638;49.080;11.896;2022-09-13T09:59:31;95999.00;;;27.20
33267;BMP180;19638;49.080;11.896;2022-09-13T10:03:35;95989.00;;;27.00
33267;BMP180;19638;49.080;11.896;2022-09-13T10:08:22;95986.00;;;27.50
33267;BMP180;19638;49.080;11.896;2022-09-13T10:12:28;95989.00;;;27.70
33267;BMP180;19638;49.080;11.896;2022-09-13T10:16:33;95989.00;;;27.40
33267;BMP180;19638;49.080;11.896;2022-09-13T10:21:19;95986.00;;;26.90
33267;BMP180;19638;49.080;11.896;2022-09-13T10:25:25;95996.00;;;26.50
33267;BMP180;19638;49.080;11.896;2022-09-13T10:29:29;95987.00;;;26.20
33267;BMP180;19638;49.080;11.896;2022-09-13T10:33:34;95991.00;;;25.90
33267;BMP180;19638;49.080;11.896;2022-09-13T10:37:41;96006.00;;;25.80
33267;BMP180;19638;49.080;11.896;2022-09-13T10:41:51;96003.00;;;25.90
33267;BMP180;19638;49.080;11.896;2022-09-13T10:45:56;95990.00;;;26.00
33267;BMP180;19638;49.080;11.896;2022-09-13T10:50:18;95993.00;;;26.00
33267;BMP180;19638;49.080;11.896;2022-09-13T10:54:23;95979.00;;;25.80
33267;BMP180;19638;49.080;11.896;2022-09-13T10:58:27;95964.00;;;25.60
33267;BMP180;19638;49.080;11.896;2022-09-13T11:02:54;95971.00;;;25.60
33267;BMP180;19638;49.080;11.896;2022-09-13T11:07:10;95974.00;;;25.60
33267;BMP180;19638;49.080;11.896;2022-09-13T11:11:23;95965.00;;;25.60
33267;BMP180;19638;49.080;11.896;2022-09-13T11:15:37;95954.00;;;25.50
33267;BMP180;19638;49.080;11.896;2022-09-13T11:20:02;95959.00;;;25.30
33267;BMP180;19638;49.080;11.896;2022-09-13T11:24:35;95962.00;;;25.20
33267;BMP180;19638;49.080;11.896;2022-09-13T11:28:47;95962.00;;;25.40
33267;BMP180;19638;49.080;11.896;2022-09-13T11:33:24;95953.00;;;25.30
33267;BMP180;19638;49.080;11.896;2022-09-13T11:37:39;95954.00;;;25.20
33267;BMP180;19638;49.080;11.896;2022-09-13T11:41:52;95932.00;;;25.30
33267;BMP180;19638;49.080;11.896;2022-09-13T11:46:25;95924.00;;;25.50
33267;BMP180;19638;49.080;11.896;2022-09-13T11:50:39;95923.00;;;25.50
33267;BMP180;19638;49.080;11.896;2022-09-13T11:55:01;95928.00;;;25.40
33267;BMP180;19638;49.080;11.896;2022-09-13T11:59:14;95932.00;;;25.90
33267;BMP180;19638;49.080;11.896;2022-09-13T12:03:42;95946.00;;;26.20
33267;BMP180;19638;49.080;11.896;2022-09-13T12:07:54;95946.00;;;26.70
33267;BMP180;19638;49.080;11.896;2022-09-13T12:12:03;95938.00;;;26.90
33267;BMP180;19638;49.080;11.896;2022-09-13T12:16:09;95949.00;;;27.20
33267;BMP180;19638;49.080;11.896;2022-09-13T12:20:19;95967.00;;;27.50
33267;BMP180;19638;49.080;11.896;2022-09-13T12:24:37;95956.00;;;27.60
33267;BMP180;19638;49.080;11.896;2022-09-13T12:28:46;95940.00;;;27.40
33267;BMP180;19638;49.080;11.896;2022-09-13T12:37:35;95967.00;;;27.00
33267;BMP180;19638;49.080;11.896;2022-09-13T12:41:48;95954.00;;;26.90
33267;BMP180;19638;49.080;11.896;2022-09-13T12:46:23;95956.00;;;26.60
33267;BMP180;19638;49.080;11.896;2022-09-13T12:50:44;95948.00;;;26.50
33267;BMP180;19638;49.080;11.896;2022-09-13T12:55:25;95945.00;;;26.20
33267;BMP180;19638;49.080;11.896;2022-09-13T12:59:57;95928.00;;;26.00
33267;BMP180;19638;49.080;11.896;2022-09-13T13:04:22;95936.00;;;25.90
33267;BMP180;19638;49.080;11.896;2022-09-13T13:08:28;95949.00;;;25.80
33267;BMP180;19638;49.080;11.896;2022-09-13T13:12:34;95941.00;;;25.30
33267;BMP180;19638;49.080;11.896;2022-09-13T13:16:39;95928.00;;;24.90
33267;BMP180;19638;49.080;11.896;2022-09-13T13:21:02;95917.00;;;24.50
33267;BMP180;19638;49.080;11.896;2022-09-13T13:25:30;95923.00;;;24.40
33267;BMP180;19638;49.080;11.896;2022-09-13T13:29:33;95934.00;;;24.60
33267;BMP180;19638;49.080;11.896;2022-09-13T13:38:44;95908.00;;;24.80
33267;BMP180;19638;49.080;11.896;2022-09-13T13:42:50;95913.00;;;24.80
33267;BMP180;19638;49.080;11.896;2022-09-13T13:46:54;95903.00;;;24.70
33267;BMP180;19638;49.080;11.896;2022-09-13T13:56:44;95895.00;;;24.20
33267;BMP180;19638;49.080;11.896;2022-09-13T14:00:50;95901.00;;;24.10
33267;BMP180;19638;49.080;11.896;2022-09-13T14:05:26;95893.00;;;24.10
33267;BMP180;19638;49.080;11.896;2022-09-13T14:09:37;95888.00;;;24.20
33267;BMP180;19638;49.080;11.896;2022-09-13T14:13:53;95885.00;;;24.20
33267;BMP180;19638;49.080;11.896;2022-09-13T14:18:32;95884.00;;;24.10
33267;BMP180;19638;49.080;11.896;2022-09-13T14:22:39;95881.00;;;24.10
33267;BMP180;19638;49.080;11.896;2022-09-13T14:26:46;95876.00;;;24.10
33267;BMP180;19638;49.080;11.896;2022-09-13T14:31:22;95868.00;;;24.10
33267;BMP180;19638;49.080;11.896;2022-09-13T14:35:27;95875.00;;;24.20
33267;BMP180;19638;49.080;11.896;2022-09-13T14:39:31;95881.00;;;24.20
33267;BMP180;19638;49.080;11.896;2022-09-13T14:48:28;95877.00;;;24.20
33267;BMP180;19638;49.080;11.896;2022-09-13T14:52:34;95866.00;;;24.00
33267;BMP180;19638;49.080;11.896;2022-09-13T14:56:40;95863.00;;;23.90
33267;BMP180;19638;49.080;11.896;2022-09-13T15:00:49;95867.00;;;23.70
33267;BMP180;19638;49.080;11.896;2022-09-13T15:04:56;95859.00;;;23.60
33267;BMP180;19638;49.080;11.896;2022-09-13T15:09:30;95847.00;;;23.50
33267;BMP180;19638;49.080;11.896;2022-09-13T15:13:34;95850.00;;;23.60
33267;BMP180;19638;49.080;11.896;2022-09-13T15:17:50;95842.00;;;23.70
33267;BMP180;19638;49.080;11.896;2022-09-13T15:22:13;95839.00;;;23.90
33267;BMP180;19638;49.080;11.896;2022-09-13T15:26:29;95833.00;;;24.00
33267;BMP180;19638;49.080;11.896;2022-09-13T15:30:38;95835.00;;;24.00
33267;BMP180;19638;49.080;11.896;2022-09-13T15:35:15;95834.00;;;23.90
33267;BMP180;19638;49.080;11.896;2022-09-13T15:39:20;95833.00;;;23.90
33267;BMP180;19638;49.080;11.896;2022-09-13T15:43:24;95827.00;;;23.90
33267;BMP180;19638;49.080;11.896;2022-09-13T15:47:27;95828.00;;;23.90
33267;BMP180;19638;49.080;11.896;2022-09-13T15:52:04;95841.00;;;23.80
33267;BMP180;19638;49.080;11.896;2022-09-13T15:56:13;95831.00;;;23.80
33267;BMP180;19638;49.080;11.896;2022-09-13T16:00:19;95833.00;;;23.70
33267;BMP180;19638;49.080;11.896;2022-09-13T16:04:53;95830.00;;;23.60
33267;BMP180;19638;49.080;11.896;2022-09-13T16:08:56;95814.00;;;23.50
33267;BMP180;19638;49.080;11.896;2022-09-13T16:13:02;95817.00;;;23.30
33267;BMP180;19638;49.080;11.896;2022-09-13T16:17:09;95814.00;;;23.20
33267;BMP180;19638;49.080;11.896;2022-09-13T16:21:41;95817.00;;;23.10
33267;BMP180;19638;49.080;11.896;2022-09-13T16:25:44;95813.00;;;23.10
33267;BMP180;19638;49.080;11.896;2022-09-13T16:29:49;95825.00;;;23.00
33267;BMP180;19638;49.080;11.896;2022-09-13T16:33:52;95816.00;;;22.90
33267;BMP180;19638;49.080;11.896;2022-09-13T16:37:56;95806.00;;;22.90
33267;BMP180;19638;49.080;11.896;2022-09-13T16:41:59;95809.00;;;22.80
33267;BMP180;19638;49.080;11.896;2022-09-13T16:46:07;95816.00;;;22.80
33267;BMP180;19638;49.080;11.896;2022-09-13T16:50:10;95807.00;;;22.60
33267;BMP180;19638;49.080;11.896;2022-09-13T16:54:13;95811.00;;;22.60
33267;BMP180;19638;49.080;11.896;2022-09-13T16:58:50;95808.00;;;22.40
33267;BMP180;19638;49.080;11.896;2022-09-13T17:02:55;95803.00;;;22.40
33267;BMP180;19638;49.080;11.896;2022-09-13T17:06:58;95812.00;;;22.30
33267;BMP180;19638;49.080;11.896;2022-09-13T17:11:04;95804.00;;;22.20
33267;BMP180;19638;49.080;11.896;2022-09-13T17:15:42;95802.00;;;22.00
33267;BMP180;19638;49.080;11.896;2022-09-13T17:19:46;95787.00;;;21.90
33267;BMP180;19638;49.080;11.896;2022-09-13T17:23:50;95791.00;;;21.70
33267;BMP180;19638;49.080;11.896;2022-09-13T17:27:53;95798.00;;;21.60
33267;BMP180;19638;49.080;11.896;2022-09-13T17:31:57;95788.00;;;21.50
33267;BMP180;19638;49.080;11.896;2022-09-13T17:36:04;95788.00;;;21.30
33267;BMP180;19638;49.080;11.896;2022-09-13T17:40:08;95787.00;;;21.20
33267;BMP180;19638;49.080;11.896;2022-09-13T17:44:45;95792.00;;;21.10
33267;BMP180;19638;49.080;11.896;2022-09-13T17:48:49;95791.00;;;21.00
33267;BMP180;19638;49.080;11.896;2022-09-13T17:52:54;95792.00;;;20.90
33267;BMP180;19638;49.080;11.896;2022-09-13T17:56:57;95789.00;;;20.90
33267;BMP180;19638;49.080;11.896;2022-09-13T18:01:34;95778.00;;;20.70
33267;BMP180;19638;49.080;11.896;2022-09-13T18:05:38;95776.00;;;20.60
33267;BMP180;19638;49.080;11.896;2022-09-13T18:09:42;95776.00;;;20.60
33267;BMP180;19638;49.080;11.896;2022-09-13T18:13:46;95767.00;;;20.40
33267;BMP180;19638;49.080;11.896;2022-09-13T18:17:49;95761.00;;;20.40
33267;BMP180;19638;49.080;11.896;2022-09-13T18:21:52;95763.00;;;20.40
33267;BMP180;19638;49.080;11.896;2022-09-13T18:30:31;95764.00;;;20.40
33267;BMP180;19638;49.080;11.896;2022-09-13T18:34:34;95769.00;;;20.40
33267;BMP180;19638;49.080;11.896;2022-09-13T18:43:13;95764.00;;;20.40
33267;BMP180;19638;49.080;11.896;2022-09-13T18:47:18;95757.00;;;20.40
33267;BMP180;19638;49.080;11.896;2022-09-13T18:51:23;95755.00;;;20.40
33267;BMP180;19638;49.080;11.896;2022-09-13T18:56:00;95757.00;;;20.40
33267;BMP180;19638;49.080;11.896;2022-09-13T19:00:05;95756.00;;;20.30
33267;BMP180;19638;49.080;11.896;2022-09-13T19:04:12;95749.00;;;20.40
33267;BMP180;19638;49.080;11.896;2022-09-13T19:08:46;95756.00;;;20.30
33267;BMP180;19638;49.080;11.896;2022-09-13T19:12:50;95758.00;;;20.30
33267;BMP180;19638;49.080;11.896;2022-09-13T19:16:55;95759.00;;;20.30
33267;BMP180;19638;49.080;11.896;2022-09-13T19:21:30;95758.00;;;20.20
33267;BMP180;19638;49.080;11.896;2022-09-13T19:25:33;95768.00;;;20.20
33267;BMP180;19638;49.080;11.896;2022-09-13T19:29:37;95758.00;;;20.20
33267;BMP180;19638;49.080;11.896;2022-09-13T19:34:14;95754.00;;;20.10
33267;BMP180;19638;49.080;11.896;2022-09-13T19:38:19;95757.00;;;20.00
33267;BMP180;19638;49.080;11.896;2022-09-13T19:42:22;95756.00;;;19.90
33267;BMP180;19638;49.080;11.896;2022-09-13T19:46:56;95756.00;;;19.90
33267;BMP180;19638;49.080;11.896;2022-09-13T19:51:22;95760.00;;;19.80
33267;BMP180;19638;49.080;11.896;2022-09-13T19:55:28;95773.00;;;19.80
33267;BMP180;19638;49.080;11.896;2022-09-13T20:00:04;95767.00;;;19.70
33267;BMP180;19638;49.080;11.896;2022-09-13T20:04:10;95775.00;;;19.60
33267;BMP180;19638;49.080;11.896;2022-09-13T20:08:13;95767.00;;;19.50
33267;BMP180;19638;49.080;11.896;2022-09-13T20:12:18;95759.00;;;19.40
33267;BMP180;19638;49.080;11.896;2022-09-13T20:16:26;95765.00;;;19.40
33267;BMP180;19638;49.080;11.896;2022-09-13T20:20:29;95748.00;;;19.30
33267;BMP180;19638;49.080;11.896;2022-09-13T20:24:32;95754.00;;;19.20
33267;BMP180;19638;49.080;11.896;2022-09-13T20:28:36;95743.00;;;19.10
33267;BMP180;19638;49.080;11.896;2022-09-13T20:32:40;95738.00;;;19.00
33267;BMP180;19638;49.080;11.896;2022-09-13T20:37:17;95746.00;;;18.80
33267;BMP180;19638;49.080;11.896;2022-09-13T20:41:20;95746.00;;;18.60
33267;BMP180;19638;49.080;11.896;2022-09-13T20:45:25;95747.00;;;18.60
33267;BMP180;19638;49.080;11.896;2022-09-13T20:49:28;95746.00;;;18.50
33267;BMP180;19638;49.080;11.896;2022-09-13T20:53:32;95730.00;;;18.40
33267;BMP180;19638;49.080;11.896;2022-09-13T20:57:35;95745.00;;;18.40
33267;BMP180;19638;49.080;11.896;2022-09-13T21:01:40;95732.00;;;18.30
33267;BMP180;19638;49.080;11.896;2022-09-13T21:05:43;95737.00;;;18.10
33267;BMP180;19638;49.080;11.896;2022-09-13T21:09:46;95734.00;;;18.10
33267;BMP180;19638;49.080;11.896;2022-09-13T21:18:23;95735.00;;;17.90
33267;BMP180;19638;49.080;11.896;2022-09-13T21:22:26;95735.00;;;17.90
33267;BMP180;19638;49.080;11.896;2022-09-13T21:26:30;95726.00;;;17.90
33267;BMP180;19638;49.080;11.896;2022-09-13T21:30:34;95730.00;;;17.90
33267;BMP180;19638;49.080;11.896;2022-09-13T21:34:38;95731.00;;;17.80
33267;BMP180;19638;49.080;11.896;2022-09-13T21:38:41;95732.00;;;17.70
33267;BMP180;19638;49.080;11.896;2022-09-13T21:43:15;95726.00;;;17.60
33267;BMP180;19638;49.080;11.896;2022-09-13T21:47:18;95727.00;;;17.50
33267;BMP180;19638;49.080;11.896;2022-09-13T21:51:24;95721.00;;;17.50
33267;BMP180;19638;49.080;11.896;2022-09-13T21:55:27;95716.00;;;17.50
33267;BMP180;19638;49.080;11.896;2022-09-13T21:59:31;95711.00;;;17.50
33267;BMP180;19638;49.080;11.896;2022-09-13T22:04:09;95710.00;;;17.40
33267;BMP180;19638;49.080;11.896;2022-09-13T22:08:15;95715.00;;;17.30
33267;BMP180;19638;49.080;11.896;2022-09-13T22:12:18;95710.00;;;17.20
33267;BMP180;19638;49.080;11.896;2022-09-13T22:16:25;95721.00;;;17.20
33267;BMP180;19638;49.080;11.896;2022-09-13T22:20:29;95707.00;;;17.20
33267;BMP180;19638;49.080;11.896;2022-09-13T22:25:07;95698.00;;;17.20
33267;BMP180;19638;49.080;11.896;2022-09-13T22:29:11;95707.00;;;17.30
33267;BMP180;19638;49.080;11.896;2022-09-13T22:33:14;95704.00;;;17.30
33267;BMP180;19638;49.080;11.896;2022-09-13T22:37:17;95705.00;;;17.40
33267;BMP180;19638;49.080;11.896;2022-09-13T22:41:23;95709.00;;;17.40
33267;BMP180;19638;49.080;11.896;2022-09-13T22:46:00;95701.00;;;17.40
33267;BMP180;19638;49.080;11.896;2022-09-13T22:50:04;95706.00;;;17.50
33267;BMP180;19638;49.080;11.896;2022-09-13T22:54:07;95718.00;;;17.60
33267;BMP180;19638;49.080;11.896;2022-09-13T22:58:12;95718.00;;;17.60
33267;BMP180;19638;49.080;11.896;2022-09-13T23:02:15;95718.00;;;17.60
33267;BMP180;19638;49.080;11.896;2022-09-13T23:10:55;95700.00;;;17.70
33267;BMP180;19638;49.080;11.896;2022-09-13T23:15:00;95708.00;;;17.70
33267;BMP180;19638;49.080;11.896;2022-09-13T23:19:03;95702.00;;;17.70
33267;BMP180;19638;49.080;11.896;2022-09-13T23:23:08;95700.00;;;17.60
33267;BMP180;19638;49.080;11.896;2022-09-13T23:31:46;95691.00;;;17.60
33267;BMP180;19638;49.080;11.896;2022-09-13T23:35:56;95684.00;;;17.50
33267;BMP180;19638;49.080;11.896;2022-09-13T23:39:59;95680.00;;;17.50
33267;BMP180;19638;49.080;11.896;2022-09-13T23:44:03;95670.00;;;17.60
33267;BMP180;19638;49.080;11.896;2022-09-13T23:48:07;95657.00;;;17.70
33267;BMP180;19638;49.080;11.896;2022-09-13T23:56:47;95681.00;;;17.80
